sensor_id;sensor_type;location;lat;lon;timestamp;P1;P2;P0
49708;PMS5003;35601;55.902;13.606;2023-05-23T00:00:18;9;9;
49708;PMS5003;35601;55.902;13.606;2023-05-23T00:02:43;10;10;
49708;PMS5003;35601;55.902;13.606;2023-05-23T00:05:08;13;13;
49708;PMS5003;35601;55.902;13.606;2023-05-23T00:07:33;10;10;
49708;PMS5003;35601;55.902;13.606;2023-05-23T00:09:59;10;10;
49708;PMS5003;35601;55.902;13.606;2023-05-23T00:12:24;11;11;
49708;PMS5003;35601;55.902;13.606;2023-05-23T00:14:49;10;9;
49708;PMS5003;35601;55.902;13.606;2023-05-23T00:17:15;11;11;
49708;PMS5003;35601;55.902;13.606;2023-05-23T00:19:40;11;10;
49708;PMS5003;35601;55.902;13.606;2023-05-23T00:22:05;10;10;
49708;PMS5003;35601;55.902;13.606;2023-05-23T00:24:31;12;9;
49708;PMS5003;35601;55.902;13.606;2023-05-23T00:26:56;11;9;
49708;PMS5003;35601;55.902;13.606;2023-05-23T00:29:21;9;9;
49708;PMS5003;35601;55.902;13.606;2023-05-23T00:31:47;6;6;
49708;PMS5003;35601;55.902;13.606;2023-05-23T00:34:12;10;10;
49708;PMS5003;35601;55.902;13.606;2023-05-23T00:36:38;10;10;
49708;PMS5003;35601;55.902;13.606;2023-05-23T00:39:03;8;8;
49708;PMS5003;35601;55.902;13.606;2023-05-23T00:41:28;8;8;
49708;PMS5003;35601;55.902;13.606;2023-05-23T00:43:53;11;11;
49708;PMS5003;35601;55.902;13.606;2023-05-23T00:46:19;9;9;
49708;PMS5003;35601;55.902;13.606;2023-05-23T00:48:44;11;10;
49708;PMS5003;35601;55.902;13.606;2023-05-23T00:51:09;9;8;
49708;PMS5003;35601;55.902;13.606;2023-05-23T00:53:35;8;8;
49708;PMS5003;35601;55.902;13.606;2023-05-23T00:56:00;8;8;
49708;PMS5003;35601;55.902;13.606;2023-05-23T00:58:25;10;10;
49708;PMS5003;35601;55.902;13.606;2023-05-23T01:00:51;9;9;
49708;PMS5003;35601;55.902;13.606;2023-05-23T01:03:16;11;9;
49708;PMS5003;35601;55.902;13.606;2023-05-23T01:05:41;7;7;
49708;PMS5003;35601;55.902;13.606;2023-05-23T01:08:07;10;10;
49708;PMS5003;35601;55.902;13.606;2023-05-23T01:10:32;8;8;
49708;PMS5003;35601;55.902;13.606;2023-05-23T01:13:03;10;10;
49708;PMS5003;35601;55.902;13.606;2023-05-23T01:15:24;10;9;
49708;PMS5003;35601;55.902;13.606;2023-05-23T01:17:49;11;10;
49708;PMS5003;35601;55.902;13.606;2023-05-23T01:20:15;8;7;
49708;PMS5003;35601;55.902;13.606;2023-05-23T01:22:53;9;8;
49708;PMS5003;35601;55.902;13.606;2023-05-23T01:25:10;9;9;
49708;PMS5003;35601;55.902;13.606;2023-05-23T01:29:57;9;8;
49708;PMS5003;35601;55.902;13.606;2023-05-23T01:32:20;8;8;
49708;PMS5003;35601;55.902;13.606;2023-05-23T01:34:48;9;8;
49708;PMS5003;35601;55.902;13.606;2023-05-23T01:37:13;10;8;
49708;PMS5003;35601;55.902;13.606;2023-05-23T01:39:38;7;7;
49708;PMS5003;35601;55.902;13.606;2023-05-23T01:42:02;11;10;
49708;PMS5003;35601;55.902;13.606;2023-05-23T01:44:28;9;9;
49708;PMS5003;35601;55.902;13.606;2023-05-23T01:46:52;7;7;
49708;PMS5003;35601;55.902;13.606;2023-05-23T01:49:18;14;9;
49708;PMS5003;35601;55.902;13.606;2023-05-23T01:51:45;8;8;
49708;PMS5003;35601;55.902;13.606;2023-05-23T01:54:09;9;7;
49708;PMS5003;35601;55.902;13.606;2023-05-23T01:56:34;8;8;
49708;PMS5003;35601;55.902;13.606;2023-05-23T01:58:59;11;8;
49708;PMS5003;35601;55.902;13.606;2023-05-23T02:01:26;8;8;
49708;PMS5003;35601;55.902;13.606;2023-05-23T02:03:50;10;8;
49708;PMS5003;35601;55.902;13.606;2023-05-23T02:06:15;9;8;
49708;PMS5003;35601;55.902;13.606;2023-05-23T02:08:40;7;7;
49708;PMS5003;35601;55.902;13.606;2023-05-23T02:11:05;9;8;
49708;PMS5003;35601;55.902;13.606;2023-05-23T02:13:31;9;8;
49708;PMS5003;35601;55.902;13.606;2023-05-23T02:15:56;8;7;
49708;PMS5003;35601;55.902;13.606;2023-05-23T02:18:21;9;8;
49708;PMS5003;35601;55.902;13.606;2023-05-23T02:20:47;8;8;
49708;PMS5003;35601;55.902;13.606;2023-05-23T02:23:13;8;8;
49708;PMS5003;35601;55.902;13.606;2023-05-23T02:25:38;9;8;
49708;PMS5003;35601;55.902;13.606;2023-05-23T02:28:03;6;6;
49708;PMS5003;35601;55.902;13.606;2023-05-23T02:30:28;12;10;
49708;PMS5003;35601;55.902;13.606;2023-05-23T02:32:53;11;8;
49708;PMS5003;35601;55.902;13.606;2023-05-23T02:35:19;7;7;
49708;PMS5003;35601;55.902;13.606;2023-05-23T02:37:45;9;8;
49708;PMS5003;35601;55.902;13.606;2023-05-23T02:40:11;11;11;
49708;PMS5003;35601;55.902;13.606;2023-05-23T02:42:35;9;9;
49708;PMS5003;35601;55.902;13.606;2023-05-23T02:45:01;6;6;
49708;PMS5003;35601;55.902;13.606;2023-05-23T02:47:27;9;9;
49708;PMS5003;35601;55.902;13.606;2023-05-23T02:49:52;10;9;
49708;PMS5003;35601;55.902;13.606;2023-05-23T02:52:17;6;6;
49708;PMS5003;35601;55.902;13.606;2023-05-23T02:54:42;10;9;
49708;PMS5003;35601;55.902;13.606;2023-05-23T02:57:07;7;6;
49708;PMS5003;35601;55.902;13.606;2023-05-23T02:59:33;6;6;
49708;PMS5003;35601;55.902;13.606;2023-05-23T03:01:58;9;9;
49708;PMS5003;35601;55.902;13.606;2023-05-23T03:04:26;7;7;
49708;PMS5003;35601;55.902;13.606;2023-05-23T03:06:49;7;7;
49708;PMS5003;35601;55.902;13.606;2023-05-23T03:09:16;6;6;
49708;PMS5003;35601;55.902;13.606;2023-05-23T03:11:40;11;11;
49708;PMS5003;35601;55.902;13.606;2023-05-23T03:14:06;7;7;
49708;PMS5003;35601;55.902;13.606;2023-05-23T03:16:31;7;7;
49708;PMS5003;35601;55.902;13.606;2023-05-23T03:18:57;9;9;
49708;PMS5003;35601;55.902;13.606;2023-05-23T03:21:22;10;9;
49708;PMS5003;35601;55.902;13.606;2023-05-23T03:23:47;9;7;
49708;PMS5003;35601;55.902;13.606;2023-05-23T03:26:12;7;6;
49708;PMS5003;35601;55.902;13.606;2023-05-23T03:28:39;8;8;
49708;PMS5003;35601;55.902;13.606;2023-05-23T03:31:03;8;8;
49708;PMS5003;35601;55.902;13.606;2023-05-23T03:33:28;6;5;
49708;PMS5003;35601;55.902;13.606;2023-05-23T03:35:53;7;7;
49708;PMS5003;35601;55.902;13.606;2023-05-23T03:38:19;10;8;
49708;PMS5003;35601;55.902;13.606;2023-05-23T03:40:44;8;8;
49708;PMS5003;35601;55.902;13.606;2023-05-23T03:43:09;7;7;
49708;PMS5003;35601;55.902;13.606;2023-05-23T03:45:34;7;7;
49708;PMS5003;35601;55.902;13.606;2023-05-23T03:48:00;10;10;
49708;PMS5003;35601;55.902;13.606;2023-05-23T03:50:25;6;6;
49708;PMS5003;35601;55.902;13.606;2023-05-23T03:52:52;10;9;
49708;PMS5003;35601;55.902;13.606;2023-05-23T03:55:16;8;7;
49708;PMS5003;35601;55.902;13.606;2023-05-23T03:57:41;8;7;
49708;PMS5003;35601;55.902;13.606;2023-05-23T04:00:07;10;9;
49708;PMS5003;35601;55.902;13.606;2023-05-23T04:02:32;6;6;
49708;PMS5003;35601;55.902;13.606;2023-05-23T04:04:57;7;7;
49708;PMS5003;35601;55.902;13.606;2023-05-23T04:07:22;9;7;
49708;PMS5003;35601;55.902;13.606;2023-05-23T04:09:48;7;7;
49708;PMS5003;35601;55.902;13.606;2023-05-23T04:12:13;9;7;
49708;PMS5003;35601;55.902;13.606;2023-05-23T04:14:38;7;7;
49708;PMS5003;35601;55.902;13.606;2023-05-23T04:17:04;8;8;
49708;PMS5003;35601;55.902;13.606;2023-05-23T04:19:29;8;8;
49708;PMS5003;35601;55.902;13.606;2023-05-23T04:21:54;8;7;
49708;PMS5003;35601;55.902;13.606;2023-05-23T04:24:19;7;6;
49708;PMS5003;35601;55.902;13.606;2023-05-23T04:26:44;7;7;
49708;PMS5003;35601;55.902;13.606;2023-05-23T04:29:11;8;7;
49708;PMS5003;35601;55.902;13.606;2023-05-23T04:31:37;7;7;
49708;PMS5003;35601;55.902;13.606;2023-05-23T04:34:02;7;7;
49708;PMS5003;35601;55.902;13.606;2023-05-23T04:36:27;7;7;
49708;PMS5003;35601;55.902;13.606;2023-05-23T04:38:52;8;8;
49708;PMS5003;35601;55.902;13.606;2023-05-23T04:41:16;9;7;
49708;PMS5003;35601;55.902;13.606;2023-05-23T04:43:42;8;7;
49708;PMS5003;35601;55.902;13.606;2023-05-23T04:46:07;8;8;
49708;PMS5003;35601;55.902;13.606;2023-05-23T04:48:33;8;8;
49708;PMS5003;35601;55.902;13.606;2023-05-23T04:50:58;11;8;
49708;PMS5003;35601;55.902;13.606;2023-05-23T04:53:24;8;7;
49708;PMS5003;35601;55.902;13.606;2023-05-23T04:55:49;7;7;
49708;PMS5003;35601;55.902;13.606;2023-05-23T04:58:14;11;9;
49708;PMS5003;35601;55.902;13.606;2023-05-23T05:00:39;8;7;
49708;PMS5003;35601;55.902;13.606;2023-05-23T05:03:06;7;7;
49708;PMS5003;35601;55.902;13.606;2023-05-23T05:05:30;5;5;
49708;PMS5003;35601;55.902;13.606;2023-05-23T05:07:55;8;7;
49708;PMS5003;35601;55.902;13.606;2023-05-23T05:10:20;10;7;
49708;PMS5003;35601;55.902;13.606;2023-05-23T05:12:47;8;8;
49708;PMS5003;35601;55.902;13.606;2023-05-23T05:15:11;7;7;
49708;PMS5003;35601;55.902;13.606;2023-05-23T05:17:36;9;8;
49708;PMS5003;35601;55.902;13.606;2023-05-23T05:20:02;6;6;
49708;PMS5003;35601;55.902;13.606;2023-05-23T05:22:29;8;8;
49708;PMS5003;35601;55.902;13.606;2023-05-23T05:24:54;9;6;
49708;PMS5003;35601;55.902;13.606;2023-05-23T05:27:17;9;8;
49708;PMS5003;35601;55.902;13.606;2023-05-23T05:29:43;8;8;
49708;PMS5003;35601;55.902;13.606;2023-05-23T05:32:10;8;8;
49708;PMS5003;35601;55.902;13.606;2023-05-23T05:34:35;11;8;
49708;PMS5003;35601;55.902;13.606;2023-05-23T05:36:59;9;7;
49708;PMS5003;35601;55.902;13.606;2023-05-23T05:39:25;9;8;
49708;PMS5003;35601;55.902;13.606;2023-05-23T05:41:50;9;9;
49708;PMS5003;35601;55.902;13.606;2023-05-23T05:44:15;9;8;
49708;PMS5003;35601;55.902;13.606;2023-05-23T05:46:40;6;6;
49708;PMS5003;35601;55.902;13.606;2023-05-23T05:49:05;8;8;
49708;PMS5003;35601;55.902;13.606;2023-05-23T05:51:31;9;9;
49708;PMS5003;35601;55.902;13.606;2023-05-23T05:53:56;9;9;
49708;PMS5003;35601;55.902;13.606;2023-05-23T05:56:23;8;7;
49708;PMS5003;35601;55.902;13.606;2023-05-23T05:58:47;8;6;
49708;PMS5003;35601;55.902;13.606;2023-05-23T06:01:12;7;7;
49708;PMS5003;35601;55.902;13.606;2023-05-23T06:03:38;8;8;
49708;PMS5003;35601;55.902;13.606;2023-05-23T06:06:03;8;8;
49708;PMS5003;35601;55.902;13.606;2023-05-23T06:08:30;9;7;
49708;PMS5003;35601;55.902;13.606;2023-05-23T06:10:54;10;6;
49708;PMS5003;35601;55.902;13.606;2023-05-23T06:13:19;9;9;
49708;PMS5003;35601;55.902;13.606;2023-05-23T06:15:45;9;9;
49708;PMS5003;35601;55.902;13.606;2023-05-23T06:18:09;8;7;
49708;PMS5003;35601;55.902;13.606;2023-05-23T06:20:36;10;8;
49708;PMS5003;35601;55.902;13.606;2023-05-23T06:23:00;5;5;
49708;PMS5003;35601;55.902;13.606;2023-05-23T06:25:26;8;8;
49708;PMS5003;35601;55.902;13.606;2023-05-23T06:27:50;8;8;
49708;PMS5003;35601;55.902;13.606;2023-05-23T06:30:16;8;7;
49708;PMS5003;35601;55.902;13.606;2023-05-23T06:32:41;9;7;
49708;PMS5003;35601;55.902;13.606;2023-05-23T06:35:08;8;8;
49708;PMS5003;35601;55.902;13.606;2023-05-23T06:37:31;7;7;
49708;PMS5003;35601;55.902;13.606;2023-05-23T06:39:57;7;7;
49708;PMS5003;35601;55.902;13.606;2023-05-23T06:42:22;12;9;
49708;PMS5003;35601;55.902;13.606;2023-05-23T06:44:48;7;7;
49708;PMS5003;35601;55.902;13.606;2023-05-23T06:47:13;9;8;
49708;PMS5003;35601;55.902;13.606;2023-05-23T06:49:38;11;10;
49708;PMS5003;35601;55.902;13.606;2023-05-23T06:52:03;6;6;
49708;PMS5003;35601;55.902;13.606;2023-05-23T06:54:28;7;7;
49708;PMS5003;35601;55.902;13.606;2023-05-23T06:56:54;12;11;
49708;PMS5003;35601;55.902;13.606;2023-05-23T06:59:19;10;10;
49708;PMS5003;35601;55.902;13.606;2023-05-23T07:01:45;14;13;
49708;PMS5003;35601;55.902;13.606;2023-05-23T07:04:10;9;9;
49708;PMS5003;35601;55.902;13.606;2023-05-23T07:06:35;10;10;
49708;PMS5003;35601;55.902;13.606;2023-05-23T07:09:00;8;8;
49708;PMS5003;35601;55.902;13.606;2023-05-23T07:11:25;7;7;
49708;PMS5003;35601;55.902;13.606;2023-05-23T07:13:51;8;8;
49708;PMS5003;35601;55.902;13.606;2023-05-23T07:16:17;12;12;
49708;PMS5003;35601;55.902;13.606;2023-05-23T07:18:42;11;9;
49708;PMS5003;35601;55.902;13.606;2023-05-23T07:21:07;12;8;
49708;PMS5003;35601;55.902;13.606;2023-05-23T07:23:33;13;11;
49708;PMS5003;35601;55.902;13.606;2023-05-23T07:25:58;9;8;
49708;PMS5003;35601;55.902;13.606;2023-05-23T07:28:23;12;9;
49708;PMS5003;35601;55.902;13.606;2023-05-23T07:30:48;10;9;
49708;PMS5003;35601;55.902;13.606;2023-05-23T07:33:14;11;10;
49708;PMS5003;35601;55.902;13.606;2023-05-23T07:35:40;10;9;
49708;PMS5003;35601;55.902;13.606;2023-05-23T07:38:05;9;9;
49708;PMS5003;35601;55.902;13.606;2023-05-23T07:40:30;10;10;
49708;PMS5003;35601;55.902;13.606;2023-05-23T07:42:55;12;10;
49708;PMS5003;35601;55.902;13.606;2023-05-23T07:45:20;9;9;
49708;PMS5003;35601;55.902;13.606;2023-05-23T07:47:46;10;8;
49708;PMS5003;35601;55.902;13.606;2023-05-23T07:50:11;9;9;
49708;PMS5003;35601;55.902;13.606;2023-05-23T07:52:37;12;10;
49708;PMS5003;35601;55.902;13.606;2023-05-23T07:55:02;9;9;
49708;PMS5003;35601;55.902;13.606;2023-05-23T07:57:27;11;11;
49708;PMS5003;35601;55.902;13.606;2023-05-23T07:59:53;11;11;
49708;PMS5003;35601;55.902;13.606;2023-05-23T08:02:18;12;10;
49708;PMS5003;35601;55.902;13.606;2023-05-23T08:04:45;11;11;
49708;PMS5003;35601;55.902;13.606;2023-05-23T08:07:09;9;9;
49708;PMS5003;35601;55.902;13.606;2023-05-23T08:09:34;11;11;
49708;PMS5003;35601;55.902;13.606;2023-05-23T08:11:59;11;11;
49708;PMS5003;35601;55.902;13.606;2023-05-23T08:14:25;9;9;
49708;PMS5003;35601;55.902;13.606;2023-05-23T08:16:50;14;14;
49708;PMS5003;35601;55.902;13.606;2023-05-23T08:19:16;12;12;
49708;PMS5003;35601;55.902;13.606;2023-05-23T08:21:41;10;10;
49708;PMS5003;35601;55.902;13.606;2023-05-23T08:24:06;13;11;
49708;PMS5003;35601;55.902;13.606;2023-05-23T08:26:31;14;14;
49708;PMS5003;35601;55.902;13.606;2023-05-23T08:28:56;17;13;
49708;PMS5003;35601;55.902;13.606;2023-05-23T08:31:22;10;10;
49708;PMS5003;35601;55.902;13.606;2023-05-23T08:33:47;11;11;
49708;PMS5003;35601;55.902;13.606;2023-05-23T08:36:12;14;12;
49708;PMS5003;35601;55.902;13.606;2023-05-23T08:38:37;13;13;
49708;PMS5003;35601;55.902;13.606;2023-05-23T08:41:03;14;11;
49708;PMS5003;35601;55.902;13.606;2023-05-23T08:43:28;12;12;
49708;PMS5003;35601;55.902;13.606;2023-05-23T08:45:53;12;12;
49708;PMS5003;35601;55.902;13.606;2023-05-23T08:48:19;16;13;
49708;PMS5003;35601;55.902;13.606;2023-05-23T08:50:44;15;13;
49708;PMS5003;35601;55.902;13.606;2023-05-23T08:53:09;11;11;
49708;PMS5003;35601;55.902;13.606;2023-05-23T08:55:35;10;10;
49708;PMS5003;35601;55.902;13.606;2023-05-23T08:58:01;18;14;
49708;PMS5003;35601;55.902;13.606;2023-05-23T09:00:26;15;10;
49708;PMS5003;35601;55.902;13.606;2023-05-23T09:02:50;12;12;
49708;PMS5003;35601;55.902;13.606;2023-05-23T09:05:17;15;12;
49708;PMS5003;35601;55.902;13.606;2023-05-23T09:07:41;11;11;
49708;PMS5003;35601;55.902;13.606;2023-05-23T09:10:07;12;12;
49708;PMS5003;35601;55.902;13.606;2023-05-23T09:12:32;14;12;
49708;PMS5003;35601;55.902;13.606;2023-05-23T09:14:56;15;13;
49708;PMS5003;35601;55.902;13.606;2023-05-23T09:17:22;11;10;
49708;PMS5003;35601;55.902;13.606;2023-05-23T09:19:47;13;13;
49708;PMS5003;35601;55.902;13.606;2023-05-23T09:22:12;11;10;
49708;PMS5003;35601;55.902;13.606;2023-05-23T09:24:38;11;11;
49708;PMS5003;35601;55.902;13.606;2023-05-23T09:27:04;10;10;
49708;PMS5003;35601;55.902;13.606;2023-05-23T09:29:28;12;11;
49708;PMS5003;35601;55.902;13.606;2023-05-23T09:31:58;11;11;
49708;PMS5003;35601;55.902;13.606;2023-05-23T09:34:19;12;12;
49708;PMS5003;35601;55.902;13.606;2023-05-23T09:36:44;14;12;
49708;PMS5003;35601;55.902;13.606;2023-05-23T09:39:10;11;11;
49708;PMS5003;35601;55.902;13.606;2023-05-23T09:41:34;13;12;
49708;PMS5003;35601;55.902;13.606;2023-05-23T09:44:04;13;13;
49708;PMS5003;35601;55.902;13.606;2023-05-23T09:46:27;13;13;
49708;PMS5003;35601;55.902;13.606;2023-05-23T09:48:51;12;12;
49708;PMS5003;35601;55.902;13.606;2023-05-23T09:51:17;12;11;
49708;PMS5003;35601;55.902;13.606;2023-05-23T09:53:41;15;15;
49708;PMS5003;35601;55.902;13.606;2023-05-23T09:56:07;14;12;
49708;PMS5003;35601;55.902;13.606;2023-05-23T09:58:33;13;12;
49708;PMS5003;35601;55.902;13.606;2023-05-23T10:00:59;15;13;
49708;PMS5003;35601;55.902;13.606;2023-05-23T10:03:24;13;12;
49708;PMS5003;35601;55.902;13.606;2023-05-23T10:05:49;12;12;
49708;PMS5003;35601;55.902;13.606;2023-05-23T10:08:15;12;12;
49708;PMS5003;35601;55.902;13.606;2023-05-23T10:13:04;10;10;
49708;PMS5003;35601;55.902;13.606;2023-05-23T10:15:30;14;13;
49708;PMS5003;35601;55.902;13.606;2023-05-23T10:18:02;13;12;
49708;PMS5003;35601;55.902;13.606;2023-05-23T10:20:21;15;15;
49708;PMS5003;35601;55.902;13.606;2023-05-23T10:22:44;12;12;
49708;PMS5003;35601;55.902;13.606;2023-05-23T10:25:10;14;14;
49708;PMS5003;35601;55.902;13.606;2023-05-23T10:27:36;14;11;
49708;PMS5003;35601;55.902;13.606;2023-05-23T10:30:00;14;14;
49708;PMS5003;35601;55.902;13.606;2023-05-23T10:32:25;14;14;
49708;PMS5003;35601;55.902;13.606;2023-05-23T10:34:53;14;13;
49708;PMS5003;35601;55.902;13.606;2023-05-23T10:37:17;14;14;
49708;PMS5003;35601;55.902;13.606;2023-05-23T10:39:48;12;12;
49708;PMS5003;35601;55.902;13.606;2023-05-23T10:42:08;14;12;
49708;PMS5003;35601;55.902;13.606;2023-05-23T10:44:33;14;14;
49708;PMS5003;35601;55.902;13.606;2023-05-23T10:46:58;13;13;
49708;PMS5003;35601;55.902;13.606;2023-05-23T10:51:48;13;13;
49708;PMS5003;35601;55.902;13.606;2023-05-23T10:54:14;13;10;
49708;PMS5003;35601;55.902;13.606;2023-05-23T10:56:40;16;15;
49708;PMS5003;35601;55.902;13.606;2023-05-23T10:59:06;14;13;
49708;PMS5003;35601;55.902;13.606;2023-05-23T11:01:31;14;14;
49708;PMS5003;35601;55.902;13.606;2023-05-23T11:03:56;13;12;
49708;PMS5003;35601;55.902;13.606;2023-05-23T11:06:27;15;14;
49708;PMS5003;35601;55.902;13.606;2023-05-23T11:08:47;14;14;
49708;PMS5003;35601;55.902;13.606;2023-05-23T11:11:13;13;12;
49708;PMS5003;35601;55.902;13.606;2023-05-23T11:18:30;16;14;
49708;PMS5003;35601;55.902;13.606;2023-05-23T11:20:54;13;13;
49708;PMS5003;35601;55.902;13.606;2023-05-23T11:23:20;12;12;
49708;PMS5003;35601;55.902;13.606;2023-05-23T11:25:47;14;13;
49708;PMS5003;35601;55.902;13.606;2023-05-23T11:28:12;14;13;
49708;PMS5003;35601;55.902;13.606;2023-05-23T11:30:36;16;16;
49708;PMS5003;35601;55.902;13.606;2023-05-23T11:33:04;16;13;
49708;PMS5003;35601;55.902;13.606;2023-05-23T11:35:26;15;14;
49708;PMS5003;35601;55.902;13.606;2023-05-23T11:37:51;14;13;
49708;PMS5003;35601;55.902;13.606;2023-05-23T11:40:26;14;13;
49708;PMS5003;35601;55.902;13.606;2023-05-23T11:42:43;12;12;
49708;PMS5003;35601;55.902;13.606;2023-05-23T11:45:08;13;11;
49708;PMS5003;35601;55.902;13.606;2023-05-23T11:49:58;13;12;
49708;PMS5003;35601;55.902;13.606;2023-05-23T11:52:23;12;11;
49708;PMS5003;35601;55.902;13.606;2023-05-23T11:54:49;14;12;
49708;PMS5003;35601;55.902;13.606;2023-05-23T11:57:15;17;15;
49708;PMS5003;35601;55.902;13.606;2023-05-23T11:59:41;14;13;
49708;PMS5003;35601;55.902;13.606;2023-05-23T12:02:05;16;14;
49708;PMS5003;35601;55.902;13.606;2023-05-23T12:04:30;16;15;
49708;PMS5003;35601;55.902;13.606;2023-05-23T12:06:57;19;16;
49708;PMS5003;35601;55.902;13.606;2023-05-23T12:09:21;15;15;
49708;PMS5003;35601;55.902;13.606;2023-05-23T12:11:47;20;17;
49708;PMS5003;35601;55.902;13.606;2023-05-23T12:14:13;14;14;
49708;PMS5003;35601;55.902;13.606;2023-05-23T12:16:38;19;18;
49708;PMS5003;35601;55.902;13.606;2023-05-23T12:19:05;14;14;
49708;PMS5003;35601;55.902;13.606;2023-05-23T12:23:55;14;14;
49708;PMS5003;35601;55.902;13.606;2023-05-23T12:26:20;14;14;
49708;PMS5003;35601;55.902;13.606;2023-05-23T12:28:45;14;14;
49708;PMS5003;35601;55.902;13.606;2023-05-23T12:31:11;14;13;
49708;PMS5003;35601;55.902;13.606;2023-05-23T12:33:37;12;12;
49708;PMS5003;35601;55.902;13.606;2023-05-23T12:36:01;14;12;
49708;PMS5003;35601;55.902;13.606;2023-05-23T12:38:28;16;15;
49708;PMS5003;35601;55.902;13.606;2023-05-23T12:43:17;16;13;
49708;PMS5003;35601;55.902;13.606;2023-05-23T12:45:43;15;15;
49708;PMS5003;35601;55.902;13.606;2023-05-23T12:48:08;14;14;
49708;PMS5003;35601;55.902;13.606;2023-05-23T12:50:33;14;14;
49708;PMS5003;35601;55.902;13.606;2023-05-23T12:52:59;18;17;
49708;PMS5003;35601;55.902;13.606;2023-05-23T12:55:24;14;12;
49708;PMS5003;35601;55.902;13.606;2023-05-23T12:57:49;13;13;
49708;PMS5003;35601;55.902;13.606;2023-05-23T13:00:16;14;14;
49708;PMS5003;35601;55.902;13.606;2023-05-23T13:02:39;15;14;
49708;PMS5003;35601;55.902;13.606;2023-05-23T13:05:05;17;17;
49708;PMS5003;35601;55.902;13.606;2023-05-23T13:07:31;16;14;
49708;PMS5003;35601;55.902;13.606;2023-05-23T13:09:57;19;16;
49708;PMS5003;35601;55.902;13.606;2023-05-23T13:12:22;21;16;
49708;PMS5003;35601;55.902;13.606;2023-05-23T13:14:48;18;18;
49708;PMS5003;35601;55.902;13.606;2023-05-23T13:17:13;18;16;
49708;PMS5003;35601;55.902;13.606;2023-05-23T13:19:38;14;14;
49708;PMS5003;35601;55.902;13.606;2023-05-23T13:22:04;18;18;
49708;PMS5003;35601;55.902;13.606;2023-05-23T13:24:29;19;19;
49708;PMS5003;35601;55.902;13.606;2023-05-23T13:26:56;18;15;
49708;PMS5003;35601;55.902;13.606;2023-05-23T13:29:21;16;14;
49708;PMS5003;35601;55.902;13.606;2023-05-23T13:31:46;16;14;
49708;PMS5003;35601;55.902;13.606;2023-05-23T13:34:11;15;15;
49708;PMS5003;35601;55.902;13.606;2023-05-23T13:36:37;15;14;
49708;PMS5003;35601;55.902;13.606;2023-05-23T13:39:02;16;16;
49708;PMS5003;35601;55.902;13.606;2023-05-23T13:41:27;16;16;
49708;PMS5003;35601;55.902;13.606;2023-05-23T13:43:53;18;16;
49708;PMS5003;35601;55.902;13.606;2023-05-23T13:46:18;18;17;
49708;PMS5003;35601;55.902;13.606;2023-05-23T13:48:45;17;17;
49708;PMS5003;35601;55.902;13.606;2023-05-23T13:51:10;15;15;
49708;PMS5003;35601;55.902;13.606;2023-05-23T13:53:34;16;15;
49708;PMS5003;35601;55.902;13.606;2023-05-23T13:56:00;17;16;
49708;PMS5003;35601;55.902;13.606;2023-05-23T13:58:26;19;18;
49708;PMS5003;35601;55.902;13.606;2023-05-23T14:00:51;17;17;
49708;PMS5003;35601;55.902;13.606;2023-05-23T14:03:16;19;17;
49708;PMS5003;35601;55.902;13.606;2023-05-23T14:05:42;20;18;
49708;PMS5003;35601;55.902;13.606;2023-05-23T14:08:07;18;17;
49708;PMS5003;35601;55.902;13.606;2023-05-23T14:10:33;18;16;
49708;PMS5003;35601;55.902;13.606;2023-05-23T14:12:58;20;15;
49708;PMS5003;35601;55.902;13.606;2023-05-23T14:15:25;18;18;
49708;PMS5003;35601;55.902;13.606;2023-05-23T14:17:50;14;14;
49708;PMS5003;35601;55.902;13.606;2023-05-23T14:20:15;18;18;
49708;PMS5003;35601;55.902;13.606;2023-05-23T14:22:38;18;17;
49708;PMS5003;35601;55.902;13.606;2023-05-23T14:25:04;18;16;
49708;PMS5003;35601;55.902;13.606;2023-05-23T14:27:31;16;14;
49708;PMS5003;35601;55.902;13.606;2023-05-23T14:29:55;19;17;
49708;PMS5003;35601;55.902;13.606;2023-05-23T14:32:21;15;13;
49708;PMS5003;35601;55.902;13.606;2023-05-23T14:34:46;18;18;
49708;PMS5003;35601;55.902;13.606;2023-05-23T14:37:11;18;18;
49708;PMS5003;35601;55.902;13.606;2023-05-23T14:39:37;24;19;
49708;PMS5003;35601;55.902;13.606;2023-05-23T14:42:02;17;17;
49708;PMS5003;35601;55.902;13.606;2023-05-23T14:44:27;18;16;
49708;PMS5003;35601;55.902;13.606;2023-05-23T14:46:53;17;17;
49708;PMS5003;35601;55.902;13.606;2023-05-23T14:49:19;22;19;
49708;PMS5003;35601;55.902;13.606;2023-05-23T14:51:44;24;24;
49708;PMS5003;35601;55.902;13.606;2023-05-23T14:54:09;18;16;
49708;PMS5003;35601;55.902;13.606;2023-05-23T14:56:36;25;21;
49708;PMS5003;35601;55.902;13.606;2023-05-23T14:59:00;20;20;
49708;PMS5003;35601;55.902;13.606;2023-05-23T15:01:26;17;16;
49708;PMS5003;35601;55.902;13.606;2023-05-23T15:03:52;20;18;
49708;PMS5003;35601;55.902;13.606;2023-05-23T15:06:17;18;18;
49708;PMS5003;35601;55.902;13.606;2023-05-23T15:08:43;19;16;
49708;PMS5003;35601;55.902;13.606;2023-05-23T15:11:10;24;24;
49708;PMS5003;35601;55.902;13.606;2023-05-23T15:13:35;26;25;
49708;PMS5003;35601;55.902;13.606;2023-05-23T15:16:00;20;19;
49708;PMS5003;35601;55.902;13.606;2023-05-23T15:18:25;22;21;
49708;PMS5003;35601;55.902;13.606;2023-05-23T15:20:49;25;23;
49708;PMS5003;35601;55.902;13.606;2023-05-23T15:23:15;20;20;
49708;PMS5003;35601;55.902;13.606;2023-05-23T15:25:41;21;21;
49708;PMS5003;35601;55.902;13.606;2023-05-23T15:28:05;21;19;
49708;PMS5003;35601;55.902;13.606;2023-05-23T15:30:31;21;21;
49708;PMS5003;35601;55.902;13.606;2023-05-23T15:32:56;24;17;
49708;PMS5003;35601;55.902;13.606;2023-05-23T15:35:22;19;19;
49708;PMS5003;35601;55.902;13.606;2023-05-23T15:37:47;21;16;
49708;PMS5003;35601;55.902;13.606;2023-05-23T15:40:13;19;19;
49708;PMS5003;35601;55.902;13.606;2023-05-23T15:42:38;31;28;
49708;PMS5003;35601;55.902;13.606;2023-05-23T15:45:05;37;36;
49708;PMS5003;35601;55.902;13.606;2023-05-23T15:47:29;25;25;
49708;PMS5003;35601;55.902;13.606;2023-05-23T15:49:55;17;17;
49708;PMS5003;35601;55.902;13.606;2023-05-23T15:52:20;14;14;
49708;PMS5003;35601;55.902;13.606;2023-05-23T15:54:45;22;19;
49708;PMS5003;35601;55.902;13.606;2023-05-23T15:57:11;19;19;
49708;PMS5003;35601;55.902;13.606;2023-05-23T15:59:37;18;18;
49708;PMS5003;35601;55.902;13.606;2023-05-23T16:02:02;25;22;
49708;PMS5003;35601;55.902;13.606;2023-05-23T16:04:27;20;18;
49708;PMS5003;35601;55.902;13.606;2023-05-23T16:06:53;24;24;
49708;PMS5003;35601;55.902;13.606;2023-05-23T16:09:18;20;20;
49708;PMS5003;35601;55.902;13.606;2023-05-23T16:11:44;29;25;
49708;PMS5003;35601;55.902;13.606;2023-05-23T16:14:12;21;21;
49708;PMS5003;35601;55.902;13.606;2023-05-23T16:16:36;26;23;
49708;PMS5003;35601;55.902;13.606;2023-05-23T16:19:01;25;20;